KLM124 EGKK-EDDF
Flight info
| Callsign | KLM124 |
|---|---|
| Flight time | 1h 6m |
| Altitude | 350 |
| Route | EGKK/26L N0464F350 MIMF1M MIMFO Y312 DVR UL9 KONAN UL607 KOK DCT REMBA UL607 SPI T180 NIVNU/N0396F230 T847 IMCOM IMCO1A EDDF/25R |
| Aircraft | B772/H-V/N |
Departure
| Time | 2026-04-18 09:38 |
|---|---|
| Airport | London Gatwick Airport (EGKK) |
Arrival
| Time | 2026-04-18 10:45 |
|---|---|
| Airport | Frankfurt Main Airport (EDDF) |
| Time | Latitude | Longitude | Altitude | Speed | Heading |
|---|---|---|---|---|---|
| 2026-04-18 09:17 | 51.15875 | -0.16975 | 204 ft | 0 kts | 106° |
| 2026-04-18 09:18 | 51.15875 | -0.16974 | 204 ft | 0 kts | 106° |
| 2026-04-18 09:18 | 51.15875 | -0.16973 | 204 ft | 0 kts | 106° |
| 2026-04-18 09:19 | 51.15875 | -0.16972 | 204 ft | 0 kts | 106° |
| 2026-04-18 09:20 | 51.15875 | -0.16971 | 204 ft | 0 kts | 106° |
| 2026-04-18 09:20 | 51.15874 | -0.16971 | 204 ft | 0 kts | 106° |
| 2026-04-18 09:21 | 51.15874 | -0.16970 | 204 ft | 0 kts | 106° |
| 2026-04-18 09:22 | 51.15874 | -0.16969 | 204 ft | 0 kts | 106° |
| 2026-04-18 09:23 | 51.15874 | -0.16970 | 204 ft | 0 kts | 106° |
| 2026-04-18 09:23 | 51.15878 | -0.16992 | 204 ft | 2 kts | 105° |
| 2026-04-18 09:23 | 51.15885 | -0.17021 | 204 ft | 2 kts | 128° |
| 2026-04-18 09:23 | 51.15895 | -0.17033 | 204 ft | 1 kts | 159° |
| 2026-04-18 09:24 | 51.15903 | -0.17036 | 204 ft | 0 kts | 176° |
| 2026-04-18 09:24 | 51.15908 | -0.17036 | 204 ft | 0 kts | 188° |
| 2026-04-18 09:24 | 51.15913 | -0.17034 | 204 ft | 0 kts | 199° |
| 2026-04-18 09:24 | 51.15919 | -0.17031 | 204 ft | 1 kts | 206° |
| 2026-04-18 09:25 | 51.15924 | -0.17027 | 204 ft | 0 kts | 209° |
| 2026-04-18 09:25 | 51.15924 | -0.17028 | 204 ft | 0 kts | 208° |
| 2026-04-18 09:25 | 51.15923 | -0.17028 | 204 ft | 0 kts | 208° |
| 2026-04-18 09:32 | 51.15910 | -0.17039 | 204 ft | 3 kts | 207° |
| 2026-04-18 09:32 | 51.15878 | -0.17061 | 204 ft | 6 kts | 199° |
| 2026-04-18 09:33 | 51.15810 | -0.17072 | 204 ft | 12 kts | 173° |
| 2026-04-18 09:33 | 51.15718 | -0.17045 | 204 ft | 13 kts | 168° |
| 2026-04-18 09:33 | 51.15641 | -0.17088 | 204 ft | 12 kts | 243° |
| 2026-04-18 09:33 | 51.15615 | -0.17217 | 204 ft | 6 kts | 255° |
| 2026-04-18 09:34 | 51.15597 | -0.17290 | 204 ft | 7 kts | 226° |
| 2026-04-18 09:34 | 51.15546 | -0.17309 | 204 ft | 8 kts | 177° |
| 2026-04-18 09:34 | 51.15486 | -0.17292 | 204 ft | 9 kts | 168° |
| 2026-04-18 09:34 | 51.15420 | -0.17269 | 204 ft | 10 kts | 167° |
| 2026-04-18 09:35 | 51.15348 | -0.17243 | 204 ft | 10 kts | 168° |
| 2026-04-18 09:35 | 51.15274 | -0.17201 | 204 ft | 11 kts | 138° |
| 2026-04-18 09:35 | 51.15264 | -0.17097 | 204 ft | 0 kts | 82° |
| 2026-04-18 09:35 | 51.15266 | -0.17086 | 204 ft | 1 kts | 81° |
| 2026-04-18 09:36 | 51.15269 | -0.17056 | 204 ft | 3 kts | 78° |
| 2026-04-18 09:36 | 51.15276 | -0.17006 | 204 ft | 5 kts | 78° |
| 2026-04-18 09:36 | 51.15284 | -0.16940 | 204 ft | 6 kts | 78° |
| 2026-04-18 09:36 | 51.15286 | -0.16862 | 204 ft | 7 kts | 108° |
| 2026-04-18 09:37 | 51.15242 | -0.16810 | 204 ft | 8 kts | 166° |
| 2026-04-18 09:37 | 51.15178 | -0.16794 | 204 ft | 9 kts | 181° |
| 2026-04-18 09:37 | 51.15117 | -0.16859 | 204 ft | 15 kts | 250° |
| 2026-04-18 09:37 | 51.15075 | -0.17156 | 204 ft | 49 kts | 258° |
| 2026-04-18 09:38 | 51.14943 | -0.18126 | 204 ft | 128 kts | 259° |
| 2026-04-18 09:38 | 51.14727 | -0.19820 | 496 ft | 174 kts | 262° |
| 2026-04-18 09:38 | 51.14525 | -0.21584 | 1565 ft | 161 kts | 262° |
| 2026-04-18 09:38 | 51.14285 | -0.23393 | 1982 ft | 173 kts | 260° |
| 2026-04-18 09:39 | 51.13956 | -0.25251 | 2626 ft | 173 kts | 256° |
| 2026-04-18 09:39 | 51.13804 | -0.27100 | 3222 ft | 173 kts | 283° |
| 2026-04-18 09:39 | 51.14283 | -0.28912 | 3710 ft | 187 kts | 306° |
| 2026-04-18 09:39 | 51.15292 | -0.30381 | 3983 ft | 213 kts | 329° |
| 2026-04-18 09:40 | 51.16751 | -0.31040 | 3981 ft | 230 kts | 356° |
| 2026-04-18 09:40 | 51.18334 | -0.30375 | 3973 ft | 240 kts | 29° |
| 2026-04-18 09:40 | 51.19437 | -0.28437 | 3978 ft | 239 kts | 63° |
| 2026-04-18 09:40 | 51.19819 | -0.25886 | 3999 ft | 241 kts | 81° |
| 2026-04-18 09:41 | 51.20047 | -0.23172 | 4001 ft | 251 kts | 78° |
| 2026-04-18 09:41 | 51.20355 | -0.20379 | 4000 ft | 258 kts | 77° |
| 2026-04-18 09:41 | 51.20714 | -0.17542 | 3997 ft | 269 kts | 74° |
| 2026-04-18 09:41 | 51.21537 | -0.14837 | 4022 ft | 276 kts | 46° |
| 2026-04-18 09:42 | 51.23004 | -0.12915 | 4547 ft | 269 kts | 31° |
| 2026-04-18 09:42 | 51.24536 | -0.11260 | 5042 ft | 273 kts | 30° |
| 2026-04-18 09:42 | 51.26110 | -0.09571 | 5955 ft | 273 kts | 30° |
| 2026-04-18 09:42 | 51.27679 | -0.07868 | 6740 ft | 277 kts | 30° |
| 2026-04-18 09:43 | 51.29262 | -0.06145 | 7415 ft | 284 kts | 30° |
| 2026-04-18 09:43 | 51.30943 | -0.04333 | 8046 ft | 292 kts | 30° |
| 2026-04-18 09:43 | 51.32447 | -0.02184 | 8850 ft | 297 kts | 51° |
| 2026-04-18 09:43 | 51.33309 | 0.00816 | 9360 ft | 309 kts | 79° |
| 2026-04-18 09:44 | 51.33311 | 0.04247 | 10008 ft | 311 kts | 98° |
| 2026-04-18 09:44 | 51.33020 | 0.07627 | 10704 ft | 312 kts | 99° |
| 2026-04-18 09:44 | 51.32697 | 0.11097 | 11312 ft | 317 kts | 100° |
| 2026-04-18 09:44 | 51.32371 | 0.14575 | 11948 ft | 322 kts | 100° |
| 2026-04-18 09:45 | 51.32036 | 0.18147 | 12603 ft | 326 kts | 100° |
| 2026-04-18 09:45 | 51.31696 | 0.21744 | 13237 ft | 332 kts | 101° |
| 2026-04-18 09:45 | 51.31350 | 0.25387 | 13888 ft | 337 kts | 101° |
| 2026-04-18 09:45 | 51.30992 | 0.29146 | 14550 ft | 343 kts | 101° |
| 2026-04-18 09:46 | 51.30632 | 0.32906 | 15190 ft | 348 kts | 101° |
| 2026-04-18 09:46 | 51.30264 | 0.36728 | 15825 ft | 353 kts | 101° |
| 2026-04-18 09:46 | 51.29884 | 0.40656 | 16480 ft | 360 kts | 101° |
| 2026-04-18 09:46 | 51.29501 | 0.44598 | 17189 ft | 365 kts | 102° |
| 2026-04-18 09:47 | 51.29110 | 0.48606 | 17871 ft | 371 kts | 102° |
| 2026-04-18 09:47 | 51.28706 | 0.52731 | 18556 ft | 377 kts | 102° |
| 2026-04-18 09:47 | 51.28299 | 0.56864 | 19224 ft | 383 kts | 102° |
| 2026-04-18 09:47 | 51.27879 | 0.61099 | 19893 ft | 389 kts | 102° |
| 2026-04-18 09:48 | 51.27455 | 0.65363 | 20548 ft | 394 kts | 103° |
| 2026-04-18 09:48 | 51.27019 | 0.69733 | 21177 ft | 401 kts | 103° |
| 2026-04-18 09:48 | 51.26576 | 0.74140 | 21788 ft | 407 kts | 104° |
| 2026-04-18 09:48 | 51.26125 | 0.78618 | 22401 ft | 412 kts | 104° |
| 2026-04-18 09:49 | 51.25666 | 0.83154 | 23003 ft | 418 kts | 104° |
| 2026-04-18 09:49 | 51.25198 | 0.87758 | 23597 ft | 423 kts | 104° |
| 2026-04-18 09:49 | 51.24723 | 0.92405 | 24178 ft | 429 kts | 104° |
| 2026-04-18 09:49 | 51.24240 | 0.97106 | 24750 ft | 434 kts | 104° |
| 2026-04-18 09:50 | 51.23747 | 1.01890 | 25338 ft | 439 kts | 104° |
| 2026-04-18 09:50 | 51.23249 | 1.06704 | 25913 ft | 442 kts | 105° |
| 2026-04-18 09:50 | 51.22746 | 1.11534 | 26446 ft | 446 kts | 105° |
| 2026-04-18 09:50 | 51.22233 | 1.16442 | 26959 ft | 450 kts | 105° |
| 2026-04-18 09:51 | 51.21718 | 1.21348 | 27446 ft | 454 kts | 105° |
| 2026-04-18 09:51 | 51.21187 | 1.26374 | 27899 ft | 459 kts | 105° |
| 2026-04-18 09:51 | 51.20657 | 1.31371 | 28317 ft | 463 kts | 105° |
| 2026-04-18 09:51 | 51.20112 | 1.36485 | 28734 ft | 468 kts | 105° |
| 2026-04-18 09:52 | 51.19562 | 1.41613 | 29132 ft | 472 kts | 105° |
| 2026-04-18 09:52 | 51.19002 | 1.46802 | 29243 ft | 480 kts | 105° |
| 2026-04-18 09:52 | 51.17871 | 1.57245 | 29251 ft | 475 kts | 105° |
| 2026-04-18 09:53 | 51.16734 | 1.67605 | 29365 ft | 487 kts | 106° |
| 2026-04-18 09:53 | 51.16136 | 1.72969 | 29398 ft | 503 kts | 106° |
| 2026-04-18 09:53 | 51.15515 | 1.78517 | 29490 ft | 517 kts | 105° |
| 2026-04-18 09:54 | 51.14875 | 1.84231 | 29849 ft | 524 kts | 105° |
| 2026-04-18 09:54 | 51.14231 | 1.89953 | 30311 ft | 528 kts | 105° |
| 2026-04-18 09:54 | 51.13571 | 1.95749 | 30751 ft | 533 kts | 106° |
| 2026-04-18 09:54 | 51.13004 | 2.01555 | 31175 ft | 541 kts | 101° |
| 2026-04-18 09:55 | 51.12659 | 2.07585 | 31599 ft | 547 kts | 99° |
| 2026-04-18 09:55 | 51.12344 | 2.13616 | 31990 ft | 552 kts | 99° |
| 2026-04-18 09:55 | 51.12023 | 2.19740 | 32391 ft | 556 kts | 99° |
| 2026-04-18 09:55 | 51.11695 | 2.25893 | 32786 ft | 561 kts | 99° |
| 2026-04-18 09:56 | 51.11362 | 2.32048 | 33157 ft | 565 kts | 99° |
| 2026-04-18 09:56 | 51.11015 | 2.38378 | 33284 ft | 576 kts | 99° |
| 2026-04-18 09:56 | 51.10659 | 2.44781 | 33327 ft | 589 kts | 98° |
| 2026-04-18 09:56 | 51.10295 | 2.51280 | 33384 ft | 601 kts | 98° |
| 2026-04-18 09:57 | 51.09918 | 2.57943 | 33713 ft | 606 kts | 98° |
| 2026-04-18 09:57 | 51.09408 | 2.64594 | 34230 ft | 601 kts | 105° |
| 2026-04-18 09:57 | 51.08476 | 2.70937 | 34715 ft | 595 kts | 112° |
| 2026-04-18 09:57 | 51.07371 | 2.77173 | 35159 ft | 594 kts | 112° |
| 2026-04-18 09:58 | 51.05080 | 2.89779 | 35248 ft | 592 kts | 112° |
| 2026-04-18 09:58 | 51.02797 | 3.02244 | 35250 ft | 590 kts | 111° |
| 2026-04-18 09:59 | 51.01651 | 3.08478 | 35237 ft | 577 kts | 111° |
| 2026-04-18 09:59 | 51.00550 | 3.14445 | 35224 ft | 563 kts | 111° |
| 2026-04-18 10:00 | 50.97279 | 3.32008 | 35195 ft | 554 kts | 110° |
| 2026-04-18 10:00 | 50.95085 | 3.43705 | 35155 ft | 550 kts | 110° |
| 2026-04-18 10:01 | 50.92915 | 3.55219 | 35107 ft | 545 kts | 110° |
| 2026-04-18 10:01 | 50.90757 | 3.66605 | 35103 ft | 542 kts | 110° |
| 2026-04-18 10:02 | 50.88628 | 3.77772 | 35177 ft | 538 kts | 110° |
| 2026-04-18 10:02 | 50.86497 | 3.88887 | 35251 ft | 536 kts | 110° |
| 2026-04-18 10:03 | 50.84334 | 4.00098 | 35254 ft | 537 kts | 110° |
| 2026-04-18 10:03 | 50.82132 | 4.11451 | 35258 ft | 537 kts | 110° |
| 2026-04-18 10:04 | 50.79944 | 4.22671 | 35260 ft | 537 kts | 110° |
| 2026-04-18 10:04 | 50.77731 | 4.33946 | 35262 ft | 537 kts | 110° |
| 2026-04-18 10:05 | 50.75514 | 4.45180 | 35265 ft | 540 kts | 110° |
| 2026-04-18 10:05 | 50.73254 | 4.56560 | 35265 ft | 544 kts | 110° |
| 2026-04-18 10:06 | 50.71006 | 4.67829 | 35255 ft | 542 kts | 111° |
| 2026-04-18 10:06 | 50.68755 | 4.79036 | 35250 ft | 542 kts | 111° |
| 2026-04-18 10:07 | 50.66468 | 4.90360 | 35244 ft | 543 kts | 110° |
| 2026-04-18 10:07 | 50.64165 | 5.01635 | 35238 ft | 542 kts | 110° |
| 2026-04-18 10:08 | 50.61854 | 5.12858 | 35237 ft | 542 kts | 110° |
| 2026-04-18 10:08 | 50.59517 | 5.24143 | 35239 ft | 542 kts | 110° |
| 2026-04-18 10:09 | 50.57190 | 5.35325 | 35241 ft | 542 kts | 110° |
| 2026-04-18 10:09 | 50.54815 | 5.46667 | 35242 ft | 542 kts | 110° |
| 2026-04-18 10:10 | 50.52477 | 5.57776 | 35244 ft | 542 kts | 110° |
| 2026-04-18 10:10 | 50.50274 | 5.68619 | 35238 ft | 543 kts | 108° |
| 2026-04-18 10:11 | 50.48164 | 5.80048 | 35232 ft | 543 kts | 108° |
| 2026-04-18 10:11 | 50.46057 | 5.91353 | 35181 ft | 541 kts | 108° |
| 2026-04-18 10:11 | 50.45000 | 5.96988 | 34515 ft | 543 kts | 108° |
| 2026-04-18 10:12 | 50.43933 | 6.02641 | 33362 ft | 556 kts | 108° |
| 2026-04-18 10:12 | 50.42838 | 6.08429 | 32303 ft | 564 kts | 108° |
| 2026-04-18 10:12 | 50.41727 | 6.14283 | 31327 ft | 569 kts | 108° |
| 2026-04-18 10:12 | 50.40595 | 6.20233 | 30547 ft | 568 kts | 108° |
| 2026-04-18 10:13 | 50.39469 | 6.26127 | 30001 ft | 562 kts | 108° |
| 2026-04-18 10:13 | 50.38359 | 6.31917 | 29400 ft | 557 kts | 108° |
| 2026-04-18 10:13 | 50.37242 | 6.37735 | 28757 ft | 553 kts | 107° |
| 2026-04-18 10:13 | 50.36452 | 6.43507 | 28124 ft | 541 kts | 98° |
| 2026-04-18 10:14 | 50.36033 | 6.49270 | 27507 ft | 525 kts | 95° |
| 2026-04-18 10:14 | 50.35674 | 6.54831 | 26904 ft | 511 kts | 95° |
| 2026-04-18 10:14 | 50.35317 | 6.60307 | 26317 ft | 497 kts | 95° |
| 2026-04-18 10:14 | 50.34971 | 6.65600 | 25752 ft | 485 kts | 96° |
| 2026-04-18 10:15 | 50.34640 | 6.70625 | 25209 ft | 484 kts | 96° |
| 2026-04-18 10:15 | 50.34296 | 6.75867 | 24645 ft | 492 kts | 96° |
| 2026-04-18 10:15 | 50.33949 | 6.81164 | 24066 ft | 487 kts | 98° |
| 2026-04-18 10:15 | 50.33280 | 6.86322 | 23488 ft | 487 kts | 108° |
| 2026-04-18 10:16 | 50.32156 | 6.91197 | 22911 ft | 482 kts | 116° |
| 2026-04-18 10:16 | 50.30756 | 6.95988 | 22377 ft | 478 kts | 117° |
| 2026-04-18 10:16 | 50.29373 | 7.00611 | 22219 ft | 465 kts | 117° |
| 2026-04-18 10:16 | 50.28024 | 7.05114 | 22214 ft | 460 kts | 117° |
| 2026-04-18 10:17 | 50.26674 | 7.09616 | 22211 ft | 463 kts | 117° |
| 2026-04-18 10:17 | 50.25325 | 7.14114 | 21980 ft | 455 kts | 117° |
| 2026-04-18 10:17 | 50.23983 | 7.18583 | 21383 ft | 456 kts | 117° |
| 2026-04-18 10:17 | 50.22651 | 7.23009 | 20810 ft | 455 kts | 117° |
| 2026-04-18 10:18 | 50.21319 | 7.27430 | 20429 ft | 449 kts | 117° |
| 2026-04-18 10:18 | 50.19989 | 7.31839 | 20044 ft | 443 kts | 117° |
| 2026-04-18 10:18 | 50.18757 | 7.36168 | 19622 ft | 440 kts | 112° |
| 2026-04-18 10:18 | 50.17706 | 7.40638 | 19217 ft | 435 kts | 111° |
| 2026-04-18 10:19 | 50.16696 | 7.45002 | 19121 ft | 422 kts | 111° |
| 2026-04-18 10:19 | 50.15715 | 7.49208 | 19095 ft | 409 kts | 111° |
| 2026-04-18 10:19 | 50.14755 | 7.53289 | 19069 ft | 396 kts | 112° |
| 2026-04-18 10:19 | 50.13811 | 7.57270 | 19045 ft | 384 kts | 112° |
| 2026-04-18 10:20 | 50.12899 | 7.61100 | 19020 ft | 373 kts | 112° |
| 2026-04-18 10:20 | 50.12011 | 7.64809 | 18997 ft | 363 kts | 112° |
| 2026-04-18 10:20 | 50.11053 | 7.68368 | 18857 ft | 354 kts | 122° |
| 2026-04-18 10:20 | 50.09750 | 7.71571 | 18599 ft | 349 kts | 128° |
| 2026-04-18 10:21 | 50.08385 | 7.74654 | 18358 ft | 347 kts | 129° |
| 2026-04-18 10:21 | 50.07018 | 7.77723 | 18109 ft | 345 kts | 129° |
| 2026-04-18 10:21 | 50.05651 | 7.80789 | 17741 ft | 347 kts | 129° |
| 2026-04-18 10:21 | 50.04274 | 7.83876 | 17228 ft | 354 kts | 128° |
| 2026-04-18 10:22 | 50.02867 | 7.87029 | 16608 ft | 363 kts | 128° |
| 2026-04-18 10:22 | 50.01488 | 7.90365 | 15972 ft | 373 kts | 119° |
| 2026-04-18 10:22 | 50.00571 | 7.94161 | 15348 ft | 383 kts | 105° |
| 2026-04-18 10:22 | 50.00187 | 7.98209 | 14732 ft | 389 kts | 92° |
| 2026-04-18 10:23 | 50.00348 | 8.02407 | 13992 ft | 397 kts | 79° |
| 2026-04-18 10:23 | 50.01052 | 8.06380 | 13217 ft | 396 kts | 66° |
| 2026-04-18 10:23 | 50.02147 | 8.10024 | 12465 ft | 394 kts | 62° |
| 2026-04-18 10:23 | 50.03081 | 8.12969 | 11842 ft | 392 kts | 63° |
| 2026-04-18 10:24 | 50.04083 | 8.16312 | 11142 ft | 389 kts | 64° |
| 2026-04-18 10:24 | 50.05103 | 8.19919 | 10387 ft | 385 kts | 64° |
| 2026-04-18 10:24 | 50.06163 | 8.23841 | 9565 ft | 376 kts | 65° |
| 2026-04-18 10:24 | 50.07171 | 8.27676 | 8749 ft | 367 kts | 65° |
| 2026-04-18 10:25 | 50.08100 | 8.31292 | 7964 ft | 359 kts | 66° |
| 2026-04-18 10:25 | 50.09000 | 8.34861 | 7280 ft | 348 kts | 66° |
| 2026-04-18 10:25 | 50.09828 | 8.38211 | 7068 ft | 325 kts | 66° |
| 2026-04-18 10:25 | 50.10597 | 8.41365 | 7047 ft | 301 kts | 66° |
| 2026-04-18 10:26 | 50.11313 | 8.44328 | 7054 ft | 283 kts | 66° |
| 2026-04-18 10:26 | 50.11996 | 8.47163 | 7050 ft | 278 kts | 66° |
| 2026-04-18 10:26 | 50.12660 | 8.49932 | 7050 ft | 274 kts | 66° |
| 2026-04-18 10:26 | 50.13331 | 8.52738 | 7050 ft | 273 kts | 66° |
| 2026-04-18 10:27 | 50.13991 | 8.55500 | 7051 ft | 273 kts | 66° |
| 2026-04-18 10:27 | 50.14654 | 8.58278 | 7051 ft | 273 kts | 66° |
| 2026-04-18 10:27 | 50.15305 | 8.61017 | 6960 ft | 270 kts | 66° |
| 2026-04-18 10:27 | 50.15967 | 8.63798 | 6682 ft | 272 kts | 66° |
| 2026-04-18 10:28 | 50.16609 | 8.66498 | 6479 ft | 270 kts | 67° |
| 2026-04-18 10:28 | 50.17261 | 8.69248 | 6260 ft | 268 kts | 67° |
| 2026-04-18 10:28 | 50.17909 | 8.71975 | 6041 ft | 267 kts | 67° |
| 2026-04-18 10:28 | 50.18548 | 8.74673 | 5954 ft | 262 kts | 67° |
| 2026-04-18 10:29 | 50.19183 | 8.77350 | 5950 ft | 267 kts | 67° |
| 2026-04-18 10:29 | 50.19820 | 8.80047 | 5947 ft | 267 kts | 67° |
| 2026-04-18 10:29 | 50.20464 | 8.82780 | 5947 ft | 266 kts | 67° |
| 2026-04-18 10:29 | 50.21102 | 8.85497 | 5947 ft | 267 kts | 67° |
| 2026-04-18 10:30 | 50.21738 | 8.88201 | 5947 ft | 266 kts | 67° |
| 2026-04-18 10:30 | 50.22374 | 8.90910 | 5947 ft | 267 kts | 67° |
| 2026-04-18 10:30 | 50.23013 | 8.93639 | 5947 ft | 267 kts | 67° |
| 2026-04-18 10:30 | 50.23653 | 8.96371 | 5947 ft | 267 kts | 67° |
| 2026-04-18 10:31 | 50.24282 | 8.99063 | 5947 ft | 267 kts | 67° |
| 2026-04-18 10:31 | 50.24925 | 9.01817 | 5947 ft | 267 kts | 67° |
| 2026-04-18 10:31 | 50.25552 | 9.04507 | 5947 ft | 267 kts | 67° |
| 2026-04-18 10:31 | 50.26188 | 9.07237 | 5947 ft | 267 kts | 67° |
| 2026-04-18 10:32 | 50.26821 | 9.09958 | 5947 ft | 267 kts | 67° |
| 2026-04-18 10:32 | 50.27460 | 9.12711 | 5947 ft | 267 kts | 67° |
| 2026-04-18 10:32 | 50.28093 | 9.15440 | 5947 ft | 267 kts | 67° |
| 2026-04-18 10:32 | 50.28720 | 9.18149 | 5898 ft | 264 kts | 67° |
| 2026-04-18 10:33 | 50.29342 | 9.20838 | 5637 ft | 265 kts | 67° |
| 2026-04-18 10:33 | 50.29964 | 9.23528 | 5445 ft | 262 kts | 67° |
| 2026-04-18 10:33 | 50.30585 | 9.26220 | 5249 ft | 260 kts | 67° |
| 2026-04-18 10:33 | 50.31189 | 9.28853 | 5050 ft | 257 kts | 69° |
| 2026-04-18 10:34 | 50.31365 | 9.31607 | 4927 ft | 256 kts | 97° |
| 2026-04-18 10:34 | 50.30656 | 9.34162 | 4920 ft | 262 kts | 127° |
| 2026-04-18 10:34 | 50.29245 | 9.35898 | 4910 ft | 257 kts | 156° |
| 2026-04-18 10:34 | 50.27549 | 9.36522 | 4934 ft | 247 kts | 172° |
| 2026-04-18 10:35 | 50.25854 | 9.36769 | 4924 ft | 243 kts | 186° |
| 2026-04-18 10:35 | 50.24313 | 9.35937 | 4914 ft | 236 kts | 218° |
| 2026-04-18 10:35 | 50.23270 | 9.34020 | 4929 ft | 231 kts | 243° |
| 2026-04-18 10:35 | 50.22612 | 9.31723 | 4943 ft | 232 kts | 250° |
| 2026-04-18 10:36 | 50.22039 | 9.29382 | 4945 ft | 231 kts | 250° |
| 2026-04-18 10:36 | 50.21475 | 9.27052 | 4946 ft | 230 kts | 250° |
| 2026-04-18 10:36 | 50.21122 | 9.24625 | 4926 ft | 227 kts | 271° |
| 2026-04-18 10:36 | 50.21010 | 9.22182 | 4946 ft | 230 kts | 255° |
| 2026-04-18 10:37 | 50.20499 | 9.19834 | 4949 ft | 231 kts | 251° |
| 2026-04-18 10:37 | 50.19933 | 9.17482 | 4946 ft | 230 kts | 250° |
| 2026-04-18 10:37 | 50.19363 | 9.15131 | 4946 ft | 230 kts | 250° |
| 2026-04-18 10:37 | 50.18800 | 9.12810 | 4946 ft | 230 kts | 250° |
| 2026-04-18 10:38 | 50.18232 | 9.10460 | 4946 ft | 230 kts | 251° |
| 2026-04-18 10:38 | 50.17680 | 9.08144 | 4946 ft | 230 kts | 251° |
| 2026-04-18 10:38 | 50.17118 | 9.05787 | 4945 ft | 229 kts | 251° |
| 2026-04-18 10:38 | 50.16566 | 9.03475 | 4944 ft | 224 kts | 251° |
| 2026-04-18 10:39 | 50.16028 | 9.01220 | 4945 ft | 221 kts | 251° |
| 2026-04-18 10:39 | 50.15494 | 8.98984 | 4946 ft | 220 kts | 251° |
| 2026-04-18 10:39 | 50.14959 | 8.96747 | 4946 ft | 220 kts | 251° |
| 2026-04-18 10:39 | 50.14431 | 8.94536 | 4946 ft | 220 kts | 251° |
| 2026-04-18 10:40 | 50.13894 | 8.92290 | 4946 ft | 220 kts | 251° |
| 2026-04-18 10:40 | 50.13374 | 8.90115 | 4946 ft | 220 kts | 251° |
| 2026-04-18 10:40 | 50.12838 | 8.87878 | 4944 ft | 220 kts | 251° |
| 2026-04-18 10:40 | 50.12313 | 8.85684 | 4845 ft | 218 kts | 251° |
| 2026-04-18 10:41 | 50.11780 | 8.83458 | 4658 ft | 219 kts | 251° |
| 2026-04-18 10:41 | 50.11243 | 8.81220 | 4477 ft | 220 kts | 251° |
| 2026-04-18 10:41 | 50.10709 | 8.78989 | 4313 ft | 220 kts | 251° |
| 2026-04-18 10:41 | 50.10180 | 8.76784 | 4153 ft | 220 kts | 251° |
| 2026-04-18 10:42 | 50.09641 | 8.74539 | 3992 ft | 220 kts | 251° |
| 2026-04-18 10:42 | 50.09111 | 8.72331 | 3806 ft | 221 kts | 251° |
| 2026-04-18 10:42 | 50.08564 | 8.70049 | 3559 ft | 225 kts | 251° |
| 2026-04-18 10:42 | 50.08017 | 8.67767 | 3309 ft | 228 kts | 250° |
| 2026-04-18 10:43 | 50.07481 | 8.65536 | 2875 ft | 241 kts | 250° |
| 2026-04-18 10:43 | 50.06875 | 8.63067 | 2383 ft | 252 kts | 248° |
| 2026-04-18 10:43 | 50.06125 | 8.60615 | 1625 ft | 260 kts | 244° |
| 2026-04-18 10:43 | 50.05453 | 8.58139 | 1112 ft | 247 kts | 251° |
| 2026-04-18 10:44 | 50.04976 | 8.55611 | 714 ft | 236 kts | 257° |
| 2026-04-18 10:44 | 50.04543 | 8.53239 | 404 ft | 225 kts | 248° |
| 2026-04-18 10:44 | 50.04038 | 8.51133 | 363 ft | 183 kts | 250° |
| 2026-04-18 10:44 | 50.03701 | 8.49643 | 343 ft | 78 kts | 260° |
| 2026-04-18 10:45 | 50.03727 | 8.49336 | 343 ft | 1 kts | 321° |